Otranto, Iowa
Current Conditions -  °F | °C
As of 7:36 PM on Monday 24 Nov 2014 (Local Time) from KAUM Reporting Station
Light Snow Light Snow  
Wind Chill: -1°   Ceiling: 1400
Heat Index: 14°   Visibility: 10mi
Dew Point:   Wind: 14mph
Humidity: 79%   Direction: 300°WNW
Pressure: 29.76"   Gusts: 25mph
Location:  43.4276°N, 92.9158°W
Report Text: KAUM 250136Z AUTO 30012G22KT 10SM -SN BKN014 BKN021 OVC042 M10/M13 A2976 RMK AO2
Loading
Personal Weather Stations






























Interactive Weather Map New forecast layout! Learn more

10-Day Weather Forecast

Advertisements
Track Severe Weather on mobile